createdAt,value
2022-09-16T00:00:44.358Z,4.93
2022-09-16T00:03:12.666Z,3.95
2022-09-16T00:05:43.543Z,3.85
2022-09-16T00:08:11.015Z,4.40
2022-09-16T00:10:37.714Z,5.03
2022-09-16T00:13:05.124Z,4.28
2022-09-16T00:15:32.415Z,4.38
2022-09-16T00:17:59.607Z,4.20
2022-09-16T00:20:26.616Z,4.65
2022-09-16T00:22:53.593Z,4.82
2022-09-16T00:25:20.481Z,4.70
2022-09-16T00:27:50.117Z,4.15
2022-09-16T00:30:17.286Z,4.22
2022-09-16T00:32:44.758Z,4.07
2022-09-16T00:35:11.369Z,4.70
2022-09-16T00:37:37.993Z,4.15
2022-09-16T00:40:05.409Z,4.18
2022-09-16T00:42:37.670Z,4.03
2022-09-16T00:45:17.146Z,3.95
2022-09-16T00:47:48.713Z,4.38
2022-09-16T00:50:40.585Z,4.35
2022-09-16T00:53:17.765Z,4.35
2022-09-16T00:55:45.629Z,5.38
2022-09-16T00:58:22.743Z,4.22
2022-09-16T01:00:50.434Z,4.15
2022-09-16T01:03:17.623Z,3.70
2022-09-16T01:05:45.194Z,4.43
2022-09-16T01:08:12.122Z,3.58
2022-09-16T01:10:41.938Z,4.05
2022-09-16T01:13:11.386Z,3.90
2022-09-16T01:15:54.779Z,4.20
2022-09-16T01:18:34.447Z,4.17
2022-09-16T01:21:16.448Z,3.95
2022-09-16T01:24:00.745Z,4.32
2022-09-16T01:29:18.382Z,4.50
2022-09-16T01:32:27.208Z,3.88
2022-09-16T01:35:08.426Z,3.90
2022-09-16T01:37:57.377Z,4.15
2022-09-16T01:40:38.969Z,4.07
2022-09-16T01:43:40.323Z,4.07
2022-09-16T01:46:36.145Z,4.03
2022-09-16T01:49:06.266Z,4.47
2022-09-16T01:51:44.167Z,4.50
2022-09-16T01:54:17.508Z,4.15
2022-09-16T01:57:01.760Z,3.42
2022-09-16T02:02:14.563Z,4.25
2022-09-16T02:04:51.099Z,4.10
2022-09-16T02:07:21.804Z,4.50
2022-09-16T02:10:13.325Z,4.18
2022-09-16T02:12:42.988Z,4.30
2022-09-16T02:15:13.593Z,4.53
2022-09-16T02:17:48.741Z,4.22
2022-09-16T02:20:24.561Z,4.25
2022-09-16T02:23:19.909Z,4.25
2022-09-16T02:25:48.968Z,4.25
2022-09-16T02:28:24.074Z,4.47
2022-09-16T02:30:53.729Z,4.18
2022-09-16T02:33:22.752Z,4.75
2022-09-16T02:35:52.547Z,4.75
2022-09-16T02:38:24.925Z,4.30
2022-09-16T02:40:56.100Z,4.38
2022-09-16T02:43:24.021Z,4.03
2022-09-16T02:46:10.577Z,4.50
2022-09-16T02:49:01.927Z,4.22
2022-09-16T02:51:43.492Z,3.92
2022-09-16T02:54:46.910Z,4.30
2022-09-16T02:57:14.446Z,4.93
2022-09-16T02:59:41.985Z,4.15
2022-09-16T03:02:08.864Z,4.18
2022-09-16T03:04:36.200Z,4.53
2022-09-16T03:07:08.171Z,4.28
2022-09-16T03:09:37.884Z,4.13
2022-09-16T03:12:23.415Z,4.25
2022-09-16T03:14:53.102Z,4.25
2022-09-16T03:18:03.909Z,4.90
2022-09-16T03:20:41.972Z,5.15
2022-09-16T03:23:28.624Z,4.50
2022-09-16T03:26:10.246Z,4.28
2022-09-16T03:29:00.785Z,4.40
2022-09-16T03:31:32.220Z,4.95
2022-09-16T03:34:06.891Z,3.83
2022-09-16T03:36:39.332Z,4.85
2022-09-16T03:39:06.342Z,4.50
2022-09-16T03:41:34.647Z,4.10
2022-09-16T03:44:04.051Z,4.55
2022-09-16T03:46:31.724Z,3.95
2022-09-16T03:48:59.241Z,3.60
2022-09-16T03:51:26.637Z,4.50
2022-09-16T03:53:54.084Z,3.88
2022-09-16T03:56:23.268Z,5.07
2022-09-16T03:58:50.116Z,4.72
2022-09-16T04:01:16.750Z,4.63
2022-09-16T04:03:43.342Z,5.07
2022-09-16T04:06:09.987Z,4.93
2022-09-16T04:08:37.203Z,4.70
2022-09-16T04:11:06.588Z,4.95
2022-09-16T04:13:34.194Z,4.97
2022-09-16T04:16:02.277Z,4.88
2022-09-16T04:18:31.158Z,5.50
2022-09-16T04:20:58.898Z,5.70
2022-09-16T04:23:26.606Z,4.80
2022-09-16T04:25:57.683Z,5.03
2022-09-16T04:28:24.928Z,5.35
2022-09-16T04:30:52.108Z,5.25
2022-09-16T04:33:19.177Z,4.90
2022-09-16T04:35:45.808Z,5.57
2022-09-16T04:38:12.428Z,5.15
2022-09-16T04:40:39.952Z,5.93
2022-09-16T04:43:06.637Z,4.78
2022-09-16T04:45:33.514Z,5.68
2022-09-16T04:48:00.122Z,5.45
2022-09-16T04:50:26.836Z,6.10
2022-09-16T04:52:53.460Z,6.18
2022-09-16T04:55:22.903Z,6.18
2022-09-16T04:57:50.164Z,6.15
2022-09-16T05:00:16.903Z,5.60
2022-09-16T05:02:46.752Z,6.55
2022-09-16T05:05:13.479Z,6.68
2022-09-16T05:07:40.101Z,7.05
2022-09-16T05:10:07.096Z,7.30
2022-09-16T05:12:36.624Z,7.35
2022-09-16T05:15:03.793Z,6.70
2022-09-16T05:17:49.817Z,6.20
2022-09-16T05:20:17.631Z,6.55
2022-09-16T05:22:44.448Z,8.00
2022-09-16T05:25:11.582Z,6.65
2022-09-16T05:27:38.345Z,6.75
2022-09-16T05:30:05.417Z,7.53
2022-09-16T05:32:32.963Z,6.93
2022-09-16T05:34:59.584Z,7.30
2022-09-16T05:37:26.347Z,6.93
2022-09-16T05:39:53.189Z,7.43
2022-09-16T05:42:19.827Z,6.55
2022-09-16T05:44:46.405Z,7.45
2022-09-16T05:47:12.991Z,7.35
2022-09-16T05:49:39.538Z,6.32
2022-09-16T05:52:06.086Z,6.70
2022-09-16T05:54:32.666Z,6.80
2022-09-16T05:57:03.266Z,7.45
2022-09-16T05:59:32.663Z,7.35
2022-09-16T06:01:59.306Z,7.20
2022-09-16T06:04:25.927Z,7.05
2022-09-16T06:06:52.565Z,6.82
2022-09-16T06:09:24.508Z,6.90
2022-09-16T06:11:56.685Z,6.18
2022-09-16T06:14:28.264Z,6.43
2022-09-16T06:16:54.984Z,6.60
2022-09-16T06:19:21.667Z,7.32
2022-09-16T06:21:49.023Z,6.90
2022-09-16T06:24:17.352Z,7.25
2022-09-16T06:26:45.671Z,7.53
2022-09-16T06:29:13.440Z,7.90
2022-09-16T06:31:40.514Z,7.88
2022-09-16T06:34:08.525Z,8.05
2022-09-16T06:36:40.394Z,7.07
2022-09-16T06:39:12.190Z,7.32
2022-09-16T06:41:38.795Z,8.18
2022-09-16T06:44:05.330Z,7.57
2022-09-16T06:46:31.900Z,8.07
2022-09-16T06:49:01.591Z,6.88
2022-09-16T06:51:32.335Z,7.55
2022-09-16T06:54:01.927Z,7.40
2022-09-16T06:56:28.523Z,7.45
2022-09-16T06:58:55.811Z,7.70
2022-09-16T07:01:25.446Z,7.97
2022-09-16T07:03:54.198Z,7.15
2022-09-16T07:06:26.656Z,7.80
2022-09-16T07:09:05.599Z,6.25
2022-09-16T07:11:32.412Z,9.25
2022-09-16T07:14:00.268Z,8.55
2022-09-16T07:16:27.250Z,7.53
2022-09-16T07:19:00.616Z,7.63
2022-09-16T07:21:30.003Z,8.75
2022-09-16T07:23:58.742Z,7.80
2022-09-16T07:26:28.957Z,10.23
2022-09-16T07:28:58.161Z,7.55
2022-09-16T07:31:28.032Z,8.18
2022-09-16T07:34:02.865Z,7.15
2022-09-16T07:36:33.504Z,7.90
2022-09-16T07:39:00.458Z,7.35
2022-09-16T07:41:33.218Z,7.43
2022-09-16T07:44:01.038Z,8.48
2022-09-16T07:46:31.486Z,7.10
2022-09-16T07:49:00.224Z,6.90
2022-09-16T07:51:28.472Z,8.70
2022-09-16T07:53:59.238Z,6.82
2022-09-16T07:56:28.938Z,7.47
2022-09-16T07:58:57.041Z,7.70
2022-09-16T08:01:24.839Z,7.13
2022-09-16T08:03:51.907Z,7.35
2022-09-16T08:06:21.701Z,7.88
2022-09-16T08:08:51.068Z,7.80
2022-09-16T08:11:17.693Z,7.93
2022-09-16T08:13:46.216Z,6.60
2022-09-16T08:16:15.846Z,7.43
2022-09-16T08:18:43.306Z,7.30
2022-09-16T08:21:12.834Z,7.18
2022-09-16T08:23:39.987Z,8.48
2022-09-16T08:26:09.631Z,7.13
2022-09-16T08:28:50.908Z,7.93
2022-09-16T08:31:24.789Z,7.57
2022-09-16T08:33:51.477Z,7.30
2022-09-16T08:36:20.768Z,6.65
2022-09-16T08:38:49.413Z,7.38
2022-09-16T08:41:34.856Z,7.78
2022-09-16T08:44:23.444Z,6.30
2022-09-16T08:46:58.820Z,7.35
2022-09-16T08:49:34.346Z,6.88
2022-09-16T08:52:11.875Z,7.47
2022-09-16T08:54:40.731Z,6.65
2022-09-16T08:57:13.457Z,7.47
2022-09-16T08:59:46.168Z,6.63
2022-09-16T09:02:32.066Z,6.75
2022-09-16T09:04:59.263Z,7.68
2022-09-16T09:07:26.267Z,6.95
2022-09-16T09:10:08.448Z,6.80
2022-09-16T09:12:38.629Z,7.07
2022-09-16T09:15:12.064Z,7.20
2022-09-16T09:17:49.146Z,7.57
2022-09-16T09:20:19.557Z,6.82
2022-09-16T09:23:13.015Z,7.30
2022-09-16T09:25:42.852Z,7.20
2022-09-16T09:28:37.907Z,6.38
2022-09-16T09:31:20.262Z,7.53
2022-09-16T09:33:55.713Z,7.43
2022-09-16T09:36:50.143Z,6.85
2022-09-16T09:39:42.961Z,6.97
2022-09-16T09:42:17.538Z,7.63
2022-09-16T09:45:09.556Z,8.05
2022-09-16T09:47:47.274Z,7.45
2022-09-16T09:50:26.010Z,7.60
2022-09-16T09:53:28.558Z,7.75
2022-09-16T09:56:08.734Z,9.30
2022-09-16T09:58:43.932Z,8.30
2022-09-16T10:01:11.468Z,8.38
2022-09-16T10:03:40.076Z,20.77
2022-09-16T10:06:07.206Z,16.35
2022-09-16T10:08:46.115Z,31.88
2022-09-16T10:11:17.569Z,17.23
2022-09-16T10:13:53.008Z,8.82
2022-09-16T10:16:22.828Z,32.10
2022-09-16T10:19:06.048Z,10.55
2022-09-16T10:21:44.787Z,9.77
2022-09-16T10:24:42.040Z,9.77
2022-09-16T10:27:20.049Z,9.43
2022-09-16T10:29:47.125Z,20.10
2022-09-16T10:32:19.232Z,11.73
2022-09-16T10:34:46.575Z,14.55
2022-09-16T10:37:13.437Z,12.35
2022-09-16T10:39:44.819Z,13.07
2022-09-16T10:42:37.747Z,10.88
2022-09-16T10:45:16.335Z,12.75
2022-09-16T10:47:50.490Z,15.75
2022-09-16T10:50:19.485Z,11.70
2022-09-16T10:52:48.114Z,10.80
2022-09-16T10:55:38.593Z,7.35
2022-09-16T10:58:18.770Z,6.85
2022-09-16T11:00:55.063Z,7.00
2022-09-16T11:03:35.981Z,7.25
2022-09-16T11:06:19.128Z,6.90
2022-09-16T11:08:55.665Z,6.82
2022-09-16T11:11:42.877Z,8.07
2022-09-16T11:14:40.308Z,8.40
2022-09-16T11:17:11.261Z,8.38
2022-09-16T11:19:49.927Z,8.13
2022-09-16T11:22:34.984Z,8.27
2022-09-16T11:25:18.957Z,8.38
2022-09-16T11:28:08.195Z,7.72
2022-09-16T11:30:47.366Z,7.10
2022-09-16T11:33:29.038Z,7.70
2022-09-16T11:36:49.347Z,8.00
2022-09-16T11:39:55.037Z,8.23
2022-09-16T11:42:57.891Z,7.50
2022-09-16T11:45:50.612Z,5.57
2022-09-16T11:48:38.821Z,5.97
2022-09-16T11:51:39.283Z,7.63
2022-09-16T11:54:17.960Z,7.63
2022-09-16T11:56:52.513Z,12.75
2022-09-16T11:59:22.965Z,6.93
2022-09-16T12:01:56.656Z,14.63
2022-09-16T12:04:26.856Z,7.20
2022-09-16T12:07:15.496Z,6.78
2022-09-16T12:09:45.071Z,7.65
2022-09-16T12:12:22.024Z,9.95
2022-09-16T12:15:05.427Z,7.15
2022-09-16T12:17:36.767Z,7.55
2022-09-16T12:20:29.488Z,8.43
2022-09-16T12:23:12.447Z,6.82
2022-09-16T12:26:08.141Z,5.65
2022-09-16T12:28:43.846Z,6.32
2022-09-16T12:31:29.200Z,5.28
2022-09-16T12:34:12.151Z,5.32
2022-09-16T12:36:43.015Z,5.53
2022-09-16T12:39:12.559Z,6.15
2022-09-16T12:41:45.291Z,6.72
2022-09-16T12:44:34.713Z,5.75
2022-09-16T12:47:16.361Z,7.28
2022-09-16T12:50:10.944Z,7.40
2022-09-16T12:52:55.606Z,6.88
2022-09-16T12:55:31.044Z,6.35
2022-09-16T12:58:22.397Z,5.78
2022-09-16T13:01:40.570Z,5.40
2022-09-16T13:04:29.500Z,4.75
2022-09-16T13:07:01.244Z,4.53
2022-09-16T13:09:36.201Z,5.18
2022-09-16T13:15:05.456Z,4.95
2022-09-16T13:17:37.808Z,4.75
2022-09-16T13:20:25.730Z,4.68
2022-09-16T13:22:54.995Z,4.30
2022-09-16T13:25:49.862Z,5.30
2022-09-16T13:28:26.376Z,5.13
2022-09-16T13:30:53.184Z,5.28
2022-09-16T13:33:28.054Z,4.55
2022-09-16T13:36:17.900Z,4.65
2022-09-16T13:38:49.587Z,5.20
2022-09-16T13:41:40.337Z,4.93
2022-09-16T13:44:38.411Z,4.78
2022-09-16T13:47:11.085Z,4.75
2022-09-16T13:49:57.417Z,3.72
2022-09-16T13:52:33.353Z,4.80
2022-09-16T13:55:10.888Z,4.10
2022-09-16T13:57:58.561Z,4.95
2022-09-16T14:00:33.806Z,4.82
2022-09-16T14:03:20.798Z,4.20
2022-09-16T14:06:03.714Z,4.47
2022-09-16T14:08:40.352Z,3.90
2022-09-16T14:11:10.086Z,4.50
2022-09-16T14:13:50.527Z,4.32
2022-09-16T14:16:26.176Z,4.35
2022-09-16T14:19:06.711Z,4.38
2022-09-16T14:21:33.838Z,4.68
2022-09-16T14:24:19.894Z,4.50
2022-09-16T14:26:52.118Z,4.90
2022-09-16T14:29:19.051Z,4.95
2022-09-16T14:31:46.008Z,4.22
2022-09-16T14:34:21.175Z,5.07
2022-09-16T14:36:48.285Z,4.18
2022-09-16T14:39:17.868Z,4.28
2022-09-16T14:42:14.904Z,4.68
2022-09-16T14:44:46.716Z,4.03
2022-09-16T14:47:50.225Z,4.18
2022-09-16T14:50:27.117Z,5.00
2022-09-16T14:53:05.769Z,3.90
2022-09-16T14:55:36.132Z,3.83
2022-09-16T14:58:03.650Z,4.70
2022-09-16T15:00:42.311Z,3.67
2022-09-16T15:03:22.689Z,4.60
2022-09-16T15:05:50.076Z,4.03
2022-09-16T15:08:19.388Z,4.15
2022-09-16T15:10:52.769Z,4.38
2022-09-16T15:13:24.036Z,4.00
2022-09-16T15:16:03.207Z,4.32
2022-09-16T15:18:35.285Z,4.63
2022-09-16T15:21:05.608Z,4.65
2022-09-16T15:23:33.360Z,4.70
2022-09-16T15:26:15.784Z,4.70
2022-09-16T15:29:02.221Z,4.47
2022-09-16T15:31:34.606Z,4.47
2022-09-16T15:34:22.600Z,4.07
2022-09-16T15:36:54.839Z,4.78
2022-09-16T15:39:37.630Z,3.92
2022-09-16T15:42:14.322Z,5.07
2022-09-16T15:44:50.123Z,4.50
2022-09-16T15:47:25.085Z,4.20
2022-09-16T15:50:03.790Z,3.97
2022-09-16T15:52:46.510Z,4.35
2022-09-16T15:55:13.143Z,4.65
2022-09-16T15:57:44.476Z,5.15
2022-09-16T16:00:14.730Z,4.88
2022-09-16T16:03:17.039Z,4.88
2022-09-16T16:05:51.569Z,4.47
2022-09-16T16:08:37.984Z,4.25
2022-09-16T16:11:09.913Z,4.10
2022-09-16T16:13:36.729Z,4.22
2022-09-16T16:16:06.385Z,3.85
2022-09-16T16:18:33.115Z,3.90
2022-09-16T16:21:04.145Z,4.70
2022-09-16T16:23:30.810Z,4.50
2022-09-16T16:25:57.426Z,4.53
2022-09-16T16:28:24.023Z,4.13
2022-09-16T16:30:50.973Z,4.40
2022-09-16T16:33:17.666Z,4.75
2022-09-16T16:35:44.249Z,4.43
2022-09-16T16:38:10.910Z,4.03
2022-09-16T16:40:37.609Z,4.20
2022-09-16T16:43:04.579Z,4.63
2022-09-16T16:45:31.228Z,3.72
2022-09-16T16:47:57.845Z,4.50
2022-09-16T16:50:24.397Z,4.22
2022-09-16T16:52:53.219Z,4.75
2022-09-16T16:55:19.814Z,4.15
2022-09-16T16:57:46.418Z,4.85
2022-09-16T17:00:14.390Z,4.70
2022-09-16T17:02:41.354Z,4.80
2022-09-16T17:05:08.367Z,4.65
2022-09-16T17:07:34.929Z,5.50
2022-09-16T17:10:01.519Z,5.38
2022-09-16T17:12:28.120Z,4.60
2022-09-16T17:14:54.984Z,4.45
2022-09-16T17:17:21.996Z,4.30
2022-09-16T17:19:48.578Z,5.07
2022-09-16T17:22:15.879Z,5.25
2022-09-16T17:24:42.463Z,4.80
2022-09-16T17:27:09.045Z,4.20
2022-09-16T17:29:35.632Z,5.13
2022-09-16T17:32:02.931Z,4.78
2022-09-16T17:34:30.095Z,5.07
2022-09-16T17:36:58.227Z,4.30
2022-09-16T17:39:24.900Z,5.18
2022-09-16T17:41:51.546Z,5.00
2022-09-16T17:44:19.089Z,5.00
2022-09-16T17:46:46.743Z,4.68
2022-09-16T17:49:21.707Z,5.93
2022-09-16T17:51:49.729Z,4.93
2022-09-16T17:54:16.832Z,5.15
2022-09-16T17:56:43.998Z,4.68
2022-09-16T17:59:13.774Z,5.22
2022-09-16T18:01:40.544Z,5.55
2022-09-16T18:04:07.874Z,4.82
2022-09-16T18:06:43.005Z,4.75
2022-09-16T18:09:10.694Z,5.03
2022-09-16T18:11:38.674Z,5.50
2022-09-16T18:14:07.850Z,4.13
2022-09-16T18:16:34.691Z,5.55
2022-09-16T18:19:02.430Z,5.80
2022-09-16T18:21:30.139Z,5.03
2022-09-16T18:24:02.555Z,4.65
2022-09-16T18:26:30.509Z,5.82
2022-09-16T18:29:13.870Z,5.82
2022-09-16T18:31:46.519Z,5.20
2022-09-16T18:34:14.017Z,5.85
2022-09-16T18:36:41.293Z,5.20
2022-09-16T18:39:13.195Z,5.10
2022-09-16T18:41:41.406Z,5.45
2022-09-16T18:44:16.090Z,5.53
2022-09-16T18:46:43.370Z,4.70
2022-09-16T18:49:14.904Z,5.32
2022-09-16T18:51:49.799Z,5.13
2022-09-16T18:54:28.951Z,5.57
2022-09-16T18:56:57.356Z,4.57
2022-09-16T18:59:28.065Z,4.95
2022-09-16T19:01:58.508Z,4.40
2022-09-16T19:04:28.078Z,5.30
2022-09-16T19:06:57.011Z,5.22
2022-09-16T19:09:24.348Z,4.22
2022-09-16T19:11:54.823Z,5.18
2022-09-16T19:14:24.390Z,4.65
2022-09-16T19:16:51.680Z,4.50
2022-09-16T19:19:19.358Z,5.45
2022-09-16T19:21:46.500Z,5.03
2022-09-16T19:24:18.904Z,4.95
2022-09-16T19:26:47.235Z,4.95
2022-09-16T19:29:15.262Z,4.65
2022-09-16T19:31:43.789Z,4.75
2022-09-16T19:34:11.018Z,5.00
2022-09-16T19:36:38.190Z,4.97
2022-09-16T19:39:06.161Z,4.50
2022-09-16T19:41:35.825Z,5.22
2022-09-16T19:44:05.344Z,4.85
2022-09-16T19:46:37.498Z,4.75
2022-09-16T19:49:06.709Z,4.82
2022-09-16T19:51:33.738Z,4.45
2022-09-16T19:54:01.082Z,5.68
2022-09-16T19:56:30.774Z,5.03
2022-09-16T19:58:57.758Z,4.38
2022-09-16T20:01:27.115Z,4.97
2022-09-16T20:03:54.515Z,4.70
2022-09-16T20:06:36.384Z,4.93
2022-09-16T20:09:13.352Z,5.43
2022-09-16T20:11:42.930Z,5.25
2022-09-16T20:14:17.669Z,5.38
2022-09-16T20:16:44.420Z,4.97
2022-09-16T20:19:13.849Z,4.90
2022-09-16T20:21:41.047Z,4.78
2022-09-16T20:24:13.069Z,5.30
2022-09-16T20:26:39.614Z,5.68
2022-09-16T20:29:06.278Z,4.60
2022-09-16T20:31:35.575Z,5.45
2022-09-16T20:34:03.471Z,5.05
2022-09-16T20:36:31.677Z,5.72
2022-09-16T20:39:01.253Z,4.95
2022-09-16T20:41:30.393Z,5.20
2022-09-16T20:43:58.899Z,5.25
2022-09-16T20:46:31.489Z,4.45
2022-09-16T20:49:01.565Z,5.25
2022-09-16T20:51:31.382Z,4.57
2022-09-16T20:54:04.947Z,5.15
2022-09-16T20:56:38.032Z,5.25
2022-09-16T20:59:07.340Z,5.32
2022-09-16T21:01:34.819Z,5.05
2022-09-16T21:04:07.631Z,4.70
2022-09-16T21:06:35.593Z,4.85
2022-09-16T21:09:05.392Z,5.45
2022-09-16T21:11:33.078Z,5.07
2022-09-16T21:14:06.821Z,5.00
2022-09-16T21:16:36.368Z,5.70
2022-09-16T21:19:05.580Z,5.68
2022-09-16T21:21:32.283Z,4.72
2022-09-16T21:24:01.269Z,4.95
2022-09-16T21:26:30.916Z,4.70
2022-09-16T21:29:03.679Z,6.47
2022-09-16T21:31:37.999Z,4.68
2022-09-16T21:34:06.560Z,5.43
2022-09-16T21:36:35.251Z,5.07
2022-09-16T21:39:02.260Z,5.07
2022-09-16T21:41:29.095Z,5.68
2022-09-16T21:43:57.330Z,4.63
2022-09-16T21:46:29.204Z,5.35
2022-09-16T21:48:58.324Z,4.93
2022-09-16T21:51:25.073Z,5.35
2022-09-16T21:53:51.890Z,5.28
2022-09-16T21:56:23.131Z,6.13
2022-09-16T21:58:53.054Z,5.68
2022-09-16T22:01:25.256Z,5.20
2022-09-16T22:03:57.276Z,5.55
2022-09-16T22:06:27.539Z,5.75
2022-09-16T22:08:55.643Z,5.97
2022-09-16T22:11:25.554Z,6.25
2022-09-16T22:13:53.762Z,6.22
2022-09-16T22:16:27.107Z,5.63
2022-09-16T22:19:01.918Z,5.97
2022-09-16T22:21:30.897Z,5.72
2022-09-16T22:23:59.424Z,5.82
2022-09-16T22:26:27.034Z,5.35
2022-09-16T22:28:54.009Z,6.30
2022-09-16T22:31:23.034Z,5.60
2022-09-16T22:33:51.395Z,5.40
2022-09-16T22:36:20.849Z,5.68
2022-09-16T22:39:00.671Z,5.72
2022-09-16T22:41:28.564Z,4.90
2022-09-16T22:43:55.510Z,4.68
2022-09-16T22:46:34.029Z,4.28
2022-09-16T22:49:01.654Z,5.78
2022-09-16T22:51:29.020Z,5.30
2022-09-16T22:53:56.013Z,4.75
2022-09-16T22:56:25.878Z,4.35
2022-09-16T22:58:56.952Z,5.22
2022-09-16T23:01:29.398Z,5.88
2022-09-16T23:03:58.623Z,5.47
2022-09-16T23:06:26.861Z,5.85
2022-09-16T23:08:53.609Z,5.78
2022-09-16T23:11:23.652Z,6.45
2022-09-16T23:13:52.634Z,6.60
2022-09-16T23:16:22.021Z,5.75
2022-09-16T23:18:49.917Z,5.90
2022-09-16T23:21:19.134Z,6.00
2022-09-16T23:23:49.325Z,5.95
2022-09-16T23:26:20.393Z,6.05
2022-09-16T23:28:51.440Z,6.15
2022-09-16T23:31:19.575Z,5.75
2022-09-16T23:33:46.650Z,5.93
2022-09-16T23:36:15.391Z,6.00
2022-09-16T23:38:43.105Z,5.10
2022-09-16T23:41:13.279Z,5.13
2022-09-16T23:43:43.883Z,5.85
2022-09-16T23:46:12.257Z,5.68
2022-09-16T23:48:38.905Z,5.20
2022-09-16T23:51:07.280Z,5.22
2022-09-16T23:53:35.462Z,5.07
2022-09-16T23:56:06.944Z,4.97
2022-09-16T23:58:34.485Z,4.93
